createdAt,value
2022-09-11T00:00:59.333Z,16.10
2022-09-11T00:03:28.092Z,16.20
2022-09-11T00:05:54.842Z,16.10
2022-09-11T00:10:49.330Z,16.20
2022-09-11T00:13:21.745Z,16.20
2022-09-11T00:18:21.722Z,16.20
2022-09-11T00:20:51.061Z,16.30
2022-09-11T00:23:19.749Z,16.40
2022-09-11T00:25:47.920Z,16.40
2022-09-11T00:28:19.725Z,16.40
2022-09-11T00:30:48.433Z,16.40
2022-09-11T00:33:15.737Z,16.40
2022-09-11T00:35:42.816Z,16.50
2022-09-11T00:40:46.397Z,16.50
2022-09-11T00:43:17.618Z,16.40
2022-09-11T00:45:47.314Z,16.50
2022-09-11T00:48:20.118Z,16.40
2022-09-11T00:53:17.850Z,16.40
2022-09-11T00:55:50.650Z,16.50
2022-09-11T00:58:24.706Z,16.50
2022-09-11T01:00:54.343Z,16.50
2022-09-11T01:03:21.259Z,16.50
2022-09-11T01:05:48.224Z,16.50
2022-09-11T01:08:14.975Z,16.50
2022-09-11T01:11:13.402Z,16.50
2022-09-11T01:13:59.101Z,16.60
2022-09-11T01:19:05.344Z,16.60
2022-09-11T01:21:53.149Z,16.50
2022-09-11T01:24:41.047Z,16.60
2022-09-11T01:27:42.769Z,16.50
2022-09-11T01:30:11.840Z,16.60
2022-09-11T01:33:08.899Z,16.60
2022-09-11T01:36:04.053Z,16.50
2022-09-11T01:38:48.128Z,16.50
2022-09-11T01:41:20.537Z,16.50
2022-09-11T01:44:15.203Z,16.50
2022-09-11T01:51:49.838Z,16.50
2022-09-11T01:54:19.827Z,16.50
2022-09-11T01:56:51.395Z,16.50
2022-09-11T02:01:53.730Z,16.50
2022-09-11T02:04:29.749Z,16.50
2022-09-11T02:07:05.114Z,16.40
2022-09-11T02:09:38.231Z,16.50
2022-09-11T02:12:09.172Z,16.50
2022-09-11T02:14:44.978Z,16.40
2022-09-11T02:17:36.565Z,16.50
2022-09-11T02:20:05.254Z,16.50
2022-09-11T02:22:31.978Z,16.50
2022-09-11T02:24:58.684Z,16.50
2022-09-11T02:27:27.484Z,16.50
2022-09-11T02:29:55.922Z,16.40
2022-09-11T02:32:22.979Z,16.50
2022-09-11T02:34:50.995Z,16.40
2022-09-11T02:37:49.119Z,16.50
2022-09-11T02:40:34.208Z,16.50
2022-09-11T02:43:23.820Z,16.40
2022-09-11T02:46:16.906Z,16.40
2022-09-11T02:51:34.929Z,16.40
2022-09-11T02:54:13.791Z,16.40
2022-09-11T02:56:57.041Z,16.40
2022-09-11T02:59:54.378Z,16.40
2022-09-11T03:04:48.465Z,16.40
2022-09-11T03:09:43.246Z,16.40
2022-09-11T03:12:10.375Z,16.30
2022-09-11T03:17:05.766Z,16.40
2022-09-11T03:22:00.565Z,16.40
2022-09-11T03:31:48.539Z,16.30
2022-09-11T03:34:15.229Z,16.30
2022-09-11T03:36:41.926Z,16.30
2022-09-11T03:44:02.869Z,16.30
2022-09-11T03:46:29.514Z,16.30
2022-09-11T03:56:17.680Z,16.20
2022-09-11T04:01:13.303Z,16.30
2022-09-11T04:03:41.074Z,16.20
2022-09-11T04:08:35.387Z,16.20
2022-09-11T04:11:04.927Z,16.30
2022-09-11T04:13:33.688Z,16.30
2022-09-11T04:16:03.822Z,16.20
2022-09-11T04:18:32.381Z,16.30
2022-09-11T04:23:26.810Z,16.30
2022-09-11T04:25:53.473Z,16.30
2022-09-11T04:33:14.327Z,16.20
2022-09-11T04:38:08.469Z,16.20
2022-09-11T04:43:03.263Z,16.20
2022-09-11T04:45:33.653Z,16.20
2022-09-11T04:48:00.978Z,16.20
2022-09-11T05:00:17.258Z,16.00
2022-09-11T05:10:06.015Z,16.00
2022-09-11T05:12:32.656Z,16.00
2022-09-11T05:14:59.299Z,16.00
2022-09-11T05:17:25.936Z,15.90
2022-09-11T05:22:19.626Z,15.90
2022-09-11T05:27:14.112Z,15.90
2022-09-11T05:34:35.556Z,16.00
2022-09-11T05:37:02.558Z,16.00
2022-09-11T05:39:29.314Z,16.00
2022-09-11T05:41:55.933Z,16.10
2022-09-11T05:44:22.827Z,16.00
2022-09-11T05:46:49.457Z,16.00
2022-09-11T05:49:16.112Z,16.10
2022-09-11T05:51:42.805Z,16.00
2022-09-11T05:56:36.695Z,16.00
2022-09-11T06:06:25.264Z,16.10
2022-09-11T06:11:20.798Z,16.10
2022-09-11T06:13:48.180Z,16.10
2022-09-11T06:16:22.869Z,16.10
2022-09-11T06:18:51.283Z,16.00
2022-09-11T06:21:20.878Z,16.00
2022-09-11T06:23:52.058Z,16.10
2022-09-11T06:26:21.358Z,16.10
2022-09-11T06:31:18.083Z,16.10
2022-09-11T06:33:45.810Z,16.10
2022-09-11T06:36:17.551Z,16.00
2022-09-11T06:38:44.838Z,16.10
2022-09-11T06:41:14.373Z,16.10
2022-09-11T06:43:42.055Z,16.20
2022-09-11T06:46:13.012Z,16.30
2022-09-11T06:48:41.209Z,16.30
2022-09-11T06:51:11.388Z,16.30
2022-09-11T06:56:06.873Z,16.30
2022-09-11T07:01:03.890Z,16.30
2022-09-11T07:03:30.943Z,16.50
2022-09-11T07:08:25.172Z,16.50
2022-09-11T07:10:51.941Z,16.40
2022-09-11T07:13:19.453Z,16.40
2022-09-11T07:15:49.406Z,16.40
2022-09-11T07:18:16.298Z,16.60
2022-09-11T07:20:43.035Z,16.60
2022-09-11T07:25:40.672Z,16.60
2022-09-11T07:28:07.331Z,16.60
2022-09-11T07:40:23.083Z,16.60
2022-09-11T07:42:49.709Z,16.80
2022-09-11T07:55:11.707Z,16.80
2022-09-11T08:00:07.032Z,16.70
2022-09-11T08:10:23.777Z,17.00
2022-09-11T08:15:14.716Z,17.20
2022-09-11T08:20:09.401Z,17.30
2022-09-11T08:22:36.038Z,17.50
2022-09-11T08:25:02.701Z,17.50
2022-09-11T08:29:56.444Z,17.50
2022-09-11T08:32:23.145Z,17.60
2022-09-11T08:39:44.988Z,17.70
2022-09-11T08:42:17.579Z,17.70
2022-09-11T08:47:20.350Z,17.50
2022-09-11T08:50:06.770Z,17.50
2022-09-11T08:52:36.013Z,17.50
2022-09-11T08:57:58.133Z,17.40
2022-09-11T09:00:33.083Z,17.50
2022-09-11T09:03:02.908Z,17.30
2022-09-11T09:05:35.436Z,17.50
2022-09-11T09:08:14.426Z,17.50
2022-09-11T09:10:50.135Z,17.50
2022-09-11T09:15:56.037Z,17.40
2022-09-11T09:18:37.511Z,17.30
2022-09-11T09:21:11.604Z,17.30
2022-09-11T09:23:53.854Z,17.20
2022-09-11T09:28:51.877Z,17.30
2022-09-11T09:31:21.523Z,17.50
2022-09-11T09:34:01.878Z,17.50
2022-09-11T09:36:37.627Z,17.60
2022-09-11T09:39:15.812Z,17.70
2022-09-11T09:42:05.087Z,17.70
2022-09-11T09:44:52.531Z,17.70
2022-09-11T09:47:19.270Z,17.80
2022-09-11T09:49:46.889Z,18.00
2022-09-11T09:52:26.865Z,18.10
2022-09-11T09:55:00.281Z,18.50
2022-09-11T09:57:39.808Z,18.70
2022-09-11T10:00:09.801Z,19.00
2022-09-11T10:02:45.523Z,19.10
2022-09-11T10:05:42.112Z,19.30
2022-09-11T10:08:38.043Z,19.40
2022-09-11T10:11:07.371Z,19.60
2022-09-11T10:13:38.530Z,19.80
2022-09-11T10:16:19.341Z,19.90
2022-09-11T10:23:50.446Z,20.30
2022-09-11T10:26:24.227Z,20.40
2022-09-11T10:31:18.484Z,20.40
2022-09-11T10:33:56.529Z,20.60
2022-09-11T10:36:27.074Z,20.50
2022-09-11T10:38:55.988Z,20.60
2022-09-11T10:41:24.983Z,20.70
2022-09-11T10:44:01.723Z,20.60
2022-09-11T10:46:41.422Z,20.60
2022-09-11T10:49:20.442Z,20.40
2022-09-11T10:52:19.397Z,20.30
2022-09-11T10:55:07.422Z,20.30
2022-09-11T11:00:27.759Z,20.00
2022-09-11T11:03:00.274Z,19.90
2022-09-11T11:05:35.532Z,20.00
2022-09-11T11:08:23.448Z,20.10
2022-09-11T11:11:16.258Z,20.00
2022-09-11T11:13:51.198Z,19.70
2022-09-11T11:16:39.602Z,19.50
2022-09-11T11:22:02.852Z,19.30
2022-09-11T11:24:35.029Z,19.30
2022-09-11T11:27:22.869Z,19.30
2022-09-11T11:30:11.391Z,19.30
2022-09-11T11:32:47.034Z,19.40
2022-09-11T11:35:24.041Z,19.50
2022-09-11T11:37:59.785Z,19.60
2022-09-11T11:42:58.509Z,19.90
2022-09-11T11:45:37.693Z,19.80
2022-09-11T11:48:15.854Z,20.10
2022-09-11T11:50:50.517Z,20.30
2022-09-11T11:53:38.899Z,20.30
2022-09-11T11:56:41.105Z,20.20
2022-09-11T11:59:34.894Z,19.90
2022-09-11T12:02:04.512Z,19.80
2022-09-11T12:04:36.850Z,19.80
2022-09-11T12:07:05.095Z,20.00
2022-09-11T12:09:33.782Z,20.10
2022-09-11T12:12:06.584Z,20.20
2022-09-11T12:17:28.307Z,20.40
2022-09-11T12:20:10.463Z,20.30
2022-09-11T12:22:38.931Z,20.40
2022-09-11T12:25:25.957Z,20.50
2022-09-11T12:28:09.266Z,20.60
2022-09-11T12:30:59.819Z,20.60
2022-09-11T12:33:41.636Z,20.70
2022-09-11T12:36:13.174Z,20.70
2022-09-11T12:38:48.952Z,20.70
2022-09-11T12:41:30.133Z,20.90
2022-09-11T12:43:57.053Z,20.90
2022-09-11T12:49:17.901Z,20.90
2022-09-11T12:51:45.584Z,20.90
2022-09-11T12:54:14.973Z,21.00
2022-09-11T12:56:58.701Z,21.10
2022-09-11T12:59:41.157Z,21.10
2022-09-11T13:02:29.063Z,21.00
2022-09-11T13:04:57.924Z,20.90
2022-09-11T13:07:40.814Z,20.90
2022-09-11T13:10:23.390Z,20.90
2022-09-11T13:12:53.082Z,20.70
2022-09-11T13:15:38.316Z,20.60
2022-09-11T13:18:35.486Z,20.60
2022-09-11T13:21:14.626Z,20.70
2022-09-11T13:26:15.863Z,20.70
2022-09-11T13:28:46.896Z,20.70
2022-09-11T13:31:36.512Z,20.70
2022-09-11T13:34:07.878Z,20.60
2022-09-11T13:36:35.887Z,20.60
2022-09-11T13:39:04.271Z,20.70
2022-09-11T13:41:38.157Z,20.80
2022-09-11T13:44:11.782Z,20.90
2022-09-11T13:46:50.595Z,20.80
2022-09-11T13:49:32.564Z,20.90
2022-09-11T13:51:59.589Z,20.90
2022-09-11T13:54:38.181Z,20.80
2022-09-11T13:57:10.468Z,20.70
2022-09-11T13:59:51.992Z,20.80
2022-09-11T14:02:50.906Z,20.70
2022-09-11T14:05:21.915Z,20.80
2022-09-11T14:08:04.725Z,20.90
2022-09-11T14:10:44.057Z,21.00
2022-09-11T14:13:19.776Z,21.20
2022-09-11T14:15:53.188Z,21.20
2022-09-11T14:18:35.058Z,21.20
2022-09-11T14:21:05.570Z,21.20
2022-09-11T14:23:40.234Z,21.30
2022-09-11T14:26:16.090Z,21.30
2022-09-11T14:28:49.317Z,21.20
2022-09-11T14:31:27.812Z,21.50
2022-09-11T14:34:12.883Z,21.50
2022-09-11T14:37:01.024Z,21.50
2022-09-11T14:39:39.452Z,21.50
2022-09-11T14:42:16.509Z,21.40
2022-09-11T14:47:17.238Z,21.40
2022-09-11T14:49:45.272Z,21.50
2022-09-11T14:52:18.068Z,21.50
2022-09-11T14:54:45.318Z,21.50
2022-09-11T14:57:20.788Z,21.50
2022-09-11T15:02:26.191Z,21.30
2022-09-11T15:04:54.428Z,21.30
2022-09-11T15:07:23.585Z,21.00
2022-09-11T15:09:51.970Z,21.00
2022-09-11T15:12:19.237Z,21.00
2022-09-11T15:19:53.124Z,20.90
2022-09-11T15:27:25.127Z,21.10
2022-09-11T15:29:52.295Z,21.10
2022-09-11T15:34:47.795Z,21.10
2022-09-11T15:37:16.853Z,21.20
2022-09-11T15:44:38.414Z,21.10
2022-09-11T15:49:32.919Z,21.00
2022-09-11T15:56:55.651Z,20.80
2022-09-11T15:59:22.630Z,20.70
2022-09-11T16:01:49.831Z,20.80
2022-09-11T16:04:20.228Z,20.80
2022-09-11T16:06:48.766Z,20.80
2022-09-11T16:11:43.938Z,20.90
2022-09-11T16:14:21.081Z,20.80
2022-09-11T16:16:48.203Z,20.70
2022-09-11T16:19:20.438Z,20.70
2022-09-11T16:21:48.018Z,20.70
2022-09-11T16:24:15.766Z,20.80
2022-09-11T16:26:44.355Z,20.70
2022-09-11T16:29:13.064Z,20.70
2022-09-11T16:31:40.330Z,20.60
2022-09-11T16:34:07.648Z,20.50
2022-09-11T16:41:38.301Z,20.50
2022-09-11T16:44:06.613Z,20.50
2022-09-11T16:46:34.373Z,20.40
2022-09-11T16:49:02.139Z,20.30
2022-09-11T16:56:24.817Z,20.30
2022-09-11T16:58:51.894Z,20.30
2022-09-11T17:01:21.252Z,20.30
2022-09-11T17:03:50.277Z,20.30
2022-09-11T17:08:46.684Z,20.20
2022-09-11T17:11:20.800Z,20.00
2022-09-11T17:13:48.843Z,20.00
2022-09-11T17:16:18.865Z,20.00
2022-09-11T17:18:51.290Z,19.90
2022-09-11T17:21:18.103Z,19.80
2022-09-11T17:26:13.983Z,19.50
2022-09-11T17:28:41.817Z,19.40
2022-09-11T17:31:10.491Z,19.30
2022-09-11T17:33:40.738Z,19.30
2022-09-11T17:36:09.938Z,19.20
2022-09-11T17:38:37.674Z,19.10
2022-09-11T17:41:06.634Z,18.00
2022-09-11T17:43:34.195Z,18.80
2022-09-11T17:46:15.271Z,18.60
2022-09-11T17:48:43.091Z,18.50
2022-09-11T17:51:24.989Z,18.30
2022-09-11T17:53:57.238Z,18.20
2022-09-11T17:56:27.195Z,18.10
2022-09-11T17:58:55.831Z,17.90
2022-09-11T18:01:24.371Z,17.80
2022-09-11T18:03:58.322Z,17.70
2022-09-11T18:06:36.764Z,17.60
2022-09-11T18:09:13.729Z,17.50
2022-09-11T18:11:43.004Z,17.40
2022-09-11T18:16:38.050Z,17.20
2022-09-11T18:21:34.126Z,17.00
2022-09-11T18:24:09.859Z,17.00
2022-09-11T18:26:40.079Z,16.90
2022-09-11T18:29:10.836Z,16.90
2022-09-11T18:31:40.740Z,16.80
2022-09-11T18:36:34.542Z,16.70
2022-09-11T18:39:02.857Z,16.60
2022-09-11T18:41:32.022Z,16.60
2022-09-11T18:44:00.589Z,16.50
2022-09-11T18:48:55.876Z,16.50
2022-09-11T18:53:53.659Z,16.40
2022-09-11T18:56:22.760Z,16.30
2022-09-11T18:58:52.135Z,16.20
2022-09-11T19:01:21.132Z,16.20
2022-09-11T19:03:52.868Z,16.20
2022-09-11T19:06:22.108Z,16.10
2022-09-11T19:08:49.223Z,16.10
2022-09-11T19:11:18.966Z,16.10
2022-09-11T19:13:46.274Z,16.00
2022-09-11T19:16:14.553Z,16.70
2022-09-11T19:18:41.412Z,16.00
2022-09-11T19:21:26.359Z,16.00
2022-09-11T19:23:59.556Z,15.90
2022-09-11T19:26:33.049Z,15.80
2022-09-11T19:29:00.664Z,15.80
2022-09-11T19:31:29.626Z,15.80
2022-09-11T19:33:57.923Z,15.70
2022-09-11T19:36:27.200Z,15.70
2022-09-11T19:38:55.980Z,15.70
2022-09-11T19:41:25.785Z,15.70
2022-09-11T19:46:26.561Z,15.60
2022-09-11T19:48:56.795Z,15.50
2022-09-11T19:51:32.123Z,15.50
2022-09-11T19:54:00.631Z,15.40
2022-09-11T19:56:28.638Z,15.50
2022-09-11T19:58:55.837Z,15.50
2022-09-11T20:01:24.282Z,15.40
2022-09-11T20:03:55.823Z,15.40
2022-09-11T20:06:25.628Z,15.40
2022-09-11T20:09:07.975Z,15.30
2022-09-11T20:11:40.708Z,15.30
2022-09-11T20:19:06.510Z,15.20
2022-09-11T20:21:35.383Z,15.20
2022-09-11T20:24:03.013Z,15.10
2022-09-11T20:26:30.883Z,15.10
2022-09-11T20:29:00.662Z,15.20
2022-09-11T20:31:31.447Z,15.10
2022-09-11T20:34:00.525Z,15.00
2022-09-11T20:38:58.319Z,15.00
2022-09-11T20:41:29.488Z,15.10
2022-09-11T20:44:01.921Z,15.00
2022-09-11T20:51:23.349Z,14.90
2022-09-11T20:53:50.876Z,14.90
2022-09-11T20:56:20.431Z,14.90
2022-09-11T21:01:17.506Z,14.80
2022-09-11T21:03:47.220Z,14.80
2022-09-11T21:06:14.614Z,14.80
2022-09-11T21:08:42.199Z,14.90
2022-09-11T21:11:09.765Z,14.80
2022-09-11T21:13:41.347Z,14.70
2022-09-11T21:16:12.274Z,14.70
2022-09-11T21:18:40.576Z,14.70
2022-09-11T21:23:34.624Z,14.60
2022-09-11T21:30:58.509Z,14.60
2022-09-11T21:33:26.448Z,14.50
2022-09-11T21:35:54.625Z,14.50
2022-09-11T21:38:24.446Z,14.40
2022-09-11T21:40:52.093Z,14.50
2022-09-11T21:50:40.348Z,14.40
2022-09-11T21:55:42.415Z,14.40
2022-09-11T21:58:15.717Z,14.30
2022-09-11T22:00:43.478Z,14.30
2022-09-11T22:03:12.536Z,14.30
2022-09-11T22:05:42.987Z,14.30
2022-09-11T22:08:11.162Z,14.30
2022-09-11T22:10:48.664Z,14.20
2022-09-11T22:13:19.278Z,14.20
2022-09-11T22:15:50.211Z,14.20
2022-09-11T22:18:18.202Z,14.20
2022-09-11T22:20:45.514Z,14.20
2022-09-11T22:23:21.897Z,14.10
2022-09-11T22:25:56.670Z,14.10
2022-09-11T22:28:23.300Z,14.10
2022-09-11T22:33:17.116Z,14.10
2022-09-11T22:35:46.651Z,14.00
2022-09-11T22:40:43.111Z,14.00
2022-09-11T22:43:10.096Z,14.00
2022-09-11T22:52:59.162Z,14.00
2022-09-11T22:55:25.835Z,13.90
2022-09-11T22:57:52.485Z,13.90
2022-09-11T23:05:32.150Z,13.90
2022-09-11T23:10:25.913Z,13.80
2022-09-11T23:25:09.312Z,13.90
2022-09-11T23:30:03.663Z,13.80
2022-09-11T23:57:05.648Z,13.70
